sensor_id;sensor_type;location;lat;lon;timestamp;P1;durP1;ratioP1;P2;durP2;ratioP2
29550;SDS011;16488;52.396;10.696;2023-01-19T13:55:02;177.18;;;76.95;;
29550;SDS011;16488;52.396;10.696;2023-01-19T13:57:32;174.35;;;66.65;;
29550;SDS011;16488;52.396;10.696;2023-01-19T14:02:49;193.40;;;53.95;;
29550;SDS011;16488;52.396;10.696;2023-01-19T14:05:27;211.52;;;57.38;;
29550;SDS011;16488;52.396;10.696;2023-01-19T14:10:41;230.68;;;63.85;;
29550;SDS011;16488;52.396;10.696;2023-01-19T14:13:25;239.07;;;58.45;;
29550;SDS011;16488;52.396;10.696;2023-01-19T14:16:04;230.77;;;60.25;;
29550;SDS011;16488;52.396;10.696;2023-01-19T14:18:32;219.07;;;60.60;;
29550;SDS011;16488;52.396;10.696;2023-01-19T14:21:03;213.73;;;60.40;;
29550;SDS011;16488;52.396;10.696;2023-01-19T14:29:06;193.60;;;53.72;;
29550;SDS011;16488;52.396;10.696;2023-01-19T14:37:01;200.23;;;64.03;;
29550;SDS011;16488;52.396;10.696;2023-01-19T14:39:29;196.77;;;68.95;;
29550;SDS011;16488;52.396;10.696;2023-01-19T14:41:58;176.85;;;64.70;;
29550;SDS011;16488;52.396;10.696;2023-01-19T14:44:37;182.30;;;62.58;;
29550;SDS011;16488;52.396;10.696;2023-01-19T14:47:03;182.68;;;64.70;;
29550;SDS011;16488;52.396;10.696;2023-01-19T14:49:32;179.55;;;60.75;;
29550;SDS011;16488;52.396;10.696;2023-01-19T14:52:15;173.30;;;61.25;;
29550;SDS011;16488;52.396;10.696;2023-01-19T14:54:47;184.38;;;60.10;;
29550;SDS011;16488;52.396;10.696;2023-01-19T14:59:40;166.82;;;60.05;;
29550;SDS011;16488;52.396;10.696;2023-01-19T15:02:06;145.20;;;52.47;;
29550;SDS011;16488;52.396;10.696;2023-01-19T15:04:32;163.27;;;53.42;;
29550;SDS011;16488;52.396;10.696;2023-01-19T15:06:58;158.95;;;55.80;;
29550;SDS011;16488;52.396;10.696;2023-01-19T15:09:24;146.85;;;50.85;;
29550;SDS011;16488;52.396;10.696;2023-01-19T15:11:49;133.63;;;46.53;;
29550;SDS011;16488;52.396;10.696;2023-01-19T15:14:17;127.50;;;47.42;;
29550;SDS011;16488;52.396;10.696;2023-01-19T15:16:44;118.53;;;44.60;;
29550;SDS011;16488;52.396;10.696;2023-01-19T15:21:36;125.20;;;45.17;;
29550;SDS011;16488;52.396;10.696;2023-01-19T15:24:06;116.43;;;43.70;;
29550;SDS011;16488;52.396;10.696;2023-01-19T15:26:34;139.43;;;44.95;;
29550;SDS011;16488;52.396;10.696;2023-01-19T15:29:23;119.72;;;44.85;;
29550;SDS011;16488;52.396;10.696;2023-01-19T15:31:50;130.30;;;44.50;;
29550;SDS011;16488;52.396;10.696;2023-01-19T15:34:17;124.30;;;44.08;;
29550;SDS011;16488;52.396;10.696;2023-01-19T15:36:45;127.43;;;45.75;;
29550;SDS011;16488;52.396;10.696;2023-01-19T15:39:11;121.95;;;45.53;;
29550;SDS011;16488;52.396;10.696;2023-01-19T15:41:37;126.80;;;46.10;;
29550;SDS011;16488;52.396;10.696;2023-01-19T15:44:05;120.45;;;45.40;;
29550;SDS011;16488;52.396;10.696;2023-01-19T15:46:31;118.20;;;45.47;;
29550;SDS011;16488;52.396;10.696;2023-01-19T15:51:23;129.50;;;45.00;;
29550;SDS011;16488;52.396;10.696;2023-01-19T15:53:50;121.30;;;45.70;;
29550;SDS011;16488;52.396;10.696;2023-01-19T15:56:18;133.40;;;48.10;;
29550;SDS011;16488;52.396;10.696;2023-01-19T15:58:45;120.85;;;44.75;;
29550;SDS011;16488;52.396;10.696;2023-01-19T16:01:12;108.25;;;40.55;;
29550;SDS011;16488;52.396;10.696;2023-01-19T16:03:40;118.88;;;40.92;;
29550;SDS011;16488;52.396;10.696;2023-01-19T16:08:31;106.53;;;40.22;;
29550;SDS011;16488;52.396;10.696;2023-01-19T16:11:01;109.50;;;37.13;;
29550;SDS011;16488;52.396;10.696;2023-01-19T16:13:28;103.13;;;38.30;;
29550;SDS011;16488;52.396;10.696;2023-01-19T16:15:55;94.60;;;34.20;;
29550;SDS011;16488;52.396;10.696;2023-01-19T16:18:24;90.55;;;33.97;;
29550;SDS011;16488;52.396;10.696;2023-01-19T16:20:50;89.05;;;32.45;;
29550;SDS011;16488;52.396;10.696;2023-01-19T16:23:15;81.95;;;29.70;;
29550;SDS011;16488;52.396;10.696;2023-01-19T16:25:41;76.53;;;31.30;;
29550;SDS011;16488;52.396;10.696;2023-01-19T16:28:07;85.28;;;30.27;;
29550;SDS011;16488;52.396;10.696;2023-01-19T16:30:33;82.40;;;30.40;;
29550;SDS011;16488;52.396;10.696;2023-01-19T16:32:58;79.20;;;28.75;;
29550;SDS011;16488;52.396;10.696;2023-01-19T16:35:24;86.13;;;31.83;;
29550;SDS011;16488;52.396;10.696;2023-01-19T16:37:49;80.97;;;29.60;;
29550;SDS011;16488;52.396;10.696;2023-01-19T16:40:15;72.75;;;29.20;;
29550;SDS011;16488;52.396;10.696;2023-01-19T16:42:41;70.43;;;29.40;;
29550;SDS011;16488;52.396;10.696;2023-01-19T16:45:07;91.45;;;31.45;;
29550;SDS011;16488;52.396;10.696;2023-01-19T16:47:32;75.80;;;29.90;;
29550;SDS011;16488;52.396;10.696;2023-01-19T16:49:58;89.20;;;29.08;;
29550;SDS011;16488;52.396;10.696;2023-01-19T16:52:23;76.25;;;29.90;;
29550;SDS011;16488;52.396;10.696;2023-01-19T16:54:49;91.10;;;31.10;;
29550;SDS011;16488;52.396;10.696;2023-01-19T16:57:18;88.25;;;29.92;;
29550;SDS011;16488;52.396;10.696;2023-01-19T16:59:44;80.32;;;32.50;;
29550;SDS011;16488;52.396;10.696;2023-01-19T17:02:09;82.50;;;29.70;;
29550;SDS011;16488;52.396;10.696;2023-01-19T17:04:35;75.85;;;30.10;;
29550;SDS011;16488;52.396;10.696;2023-01-19T17:07:01;85.97;;;31.15;;
29550;SDS011;16488;52.396;10.696;2023-01-19T17:09:27;71.97;;;31.23;;
29550;SDS011;16488;52.396;10.696;2023-01-19T17:11:52;85.88;;;33.40;;
29550;SDS011;16488;52.396;10.696;2023-01-19T17:14:18;81.07;;;31.63;;
29550;SDS011;16488;52.396;10.696;2023-01-19T17:16:44;78.78;;;34.42;;
29550;SDS011;16488;52.396;10.696;2023-01-19T17:19:12;78.90;;;30.60;;
29550;SDS011;16488;52.396;10.696;2023-01-19T17:21:41;81.30;;;31.38;;
29550;SDS011;16488;52.396;10.696;2023-01-19T17:24:09;85.82;;;30.20;;
29550;SDS011;16488;52.396;10.696;2023-01-19T17:26:35;76.50;;;30.33;;
29550;SDS011;16488;52.396;10.696;2023-01-19T17:29:01;79.95;;;30.35;;
29550;SDS011;16488;52.396;10.696;2023-01-19T17:31:31;84.90;;;31.23;;
29550;SDS011;16488;52.396;10.696;2023-01-19T17:33:58;68.30;;;28.60;;
29550;SDS011;16488;52.396;10.696;2023-01-19T17:36:24;72.93;;;31.00;;
29550;SDS011;16488;52.396;10.696;2023-01-19T17:38:52;89.65;;;30.83;;
29550;SDS011;16488;52.396;10.696;2023-01-19T17:41:20;81.40;;;30.08;;
29550;SDS011;16488;52.396;10.696;2023-01-19T17:43:48;75.13;;;28.45;;
29550;SDS011;16488;52.396;10.696;2023-01-19T17:46:20;68.65;;;27.05;;
29550;SDS011;16488;52.396;10.696;2023-01-19T17:48:55;72.20;;;26.80;;
29550;SDS011;16488;52.396;10.696;2023-01-19T17:51:22;64.40;;;27.00;;
29550;SDS011;16488;52.396;10.696;2023-01-19T17:53:48;74.55;;;28.73;;
29550;SDS011;16488;52.396;10.696;2023-01-19T17:56:15;63.83;;;26.00;;
29550;SDS011;16488;52.396;10.696;2023-01-19T17:58:43;58.90;;;25.83;;
29550;SDS011;16488;52.396;10.696;2023-01-19T18:01:12;67.28;;;26.30;;
29550;SDS011;16488;52.396;10.696;2023-01-19T18:03:40;64.70;;;25.48;;
29550;SDS011;16488;52.396;10.696;2023-01-19T18:06:07;63.17;;;25.08;;
29550;SDS011;16488;52.396;10.696;2023-01-19T18:08:33;62.10;;;22.92;;
29550;SDS011;16488;52.396;10.696;2023-01-19T18:11:01;57.45;;;23.05;;
29550;SDS011;16488;52.396;10.696;2023-01-19T18:16:00;61.08;;;25.05;;
29550;SDS011;16488;52.396;10.696;2023-01-19T18:18:27;61.55;;;22.77;;
29550;SDS011;16488;52.396;10.696;2023-01-19T18:20:57;55.88;;;21.65;;
29550;SDS011;16488;52.396;10.696;2023-01-19T18:23:23;59.65;;;21.52;;
29550;SDS011;16488;52.396;10.696;2023-01-19T18:25:49;50.03;;;23.95;;
29550;SDS011;16488;52.396;10.696;2023-01-19T18:28:22;49.75;;;22.90;;
29550;SDS011;16488;52.396;10.696;2023-01-19T18:30:48;53.88;;;21.42;;
29550;SDS011;16488;52.396;10.696;2023-01-19T18:33:13;49.20;;;19.10;;
29550;SDS011;16488;52.396;10.696;2023-01-19T18:35:39;60.45;;;23.17;;
29550;SDS011;16488;52.396;10.696;2023-01-19T18:38:04;51.97;;;20.92;;
29550;SDS011;16488;52.396;10.696;2023-01-19T18:40:30;50.88;;;20.63;;
29550;SDS011;16488;52.396;10.696;2023-01-19T18:42:56;59.55;;;20.48;;
29550;SDS011;16488;52.396;10.696;2023-01-19T18:45:21;42.83;;;19.38;;
29550;SDS011;16488;52.396;10.696;2023-01-19T18:47:47;54.90;;;19.65;;
29550;SDS011;16488;52.396;10.696;2023-01-19T18:50:12;83.93;;;22.13;;
29550;SDS011;16488;52.396;10.696;2023-01-19T18:52:38;57.63;;;20.35;;
29550;SDS011;16488;52.396;10.696;2023-01-19T18:55:04;49.85;;;20.42;;
29550;SDS011;16488;52.396;10.696;2023-01-19T18:57:30;53.88;;;21.23;;
29550;SDS011;16488;52.396;10.696;2023-01-19T18:59:57;54.15;;;20.40;;
29550;SDS011;16488;52.396;10.696;2023-01-19T19:02:23;70.40;;;23.60;;
29550;SDS011;16488;52.396;10.696;2023-01-19T19:04:49;44.70;;;20.70;;
29550;SDS011;16488;52.396;10.696;2023-01-19T19:07:14;55.35;;;20.25;;
29550;SDS011;16488;52.396;10.696;2023-01-19T19:09:40;42.88;;;19.88;;
29550;SDS011;16488;52.396;10.696;2023-01-19T19:12:05;53.70;;;21.38;;
29550;SDS011;16488;52.396;10.696;2023-01-19T19:14:33;42.58;;;20.05;;
29550;SDS011;16488;52.396;10.696;2023-01-19T19:16:58;41.70;;;17.15;;
29550;SDS011;16488;52.396;10.696;2023-01-19T19:19:24;43.10;;;17.48;;
29550;SDS011;16488;52.396;10.696;2023-01-19T19:21:49;47.47;;;19.42;;
29550;SDS011;16488;52.396;10.696;2023-01-19T19:24:16;42.60;;;19.27;;
29550;SDS011;16488;52.396;10.696;2023-01-19T19:26:41;47.42;;;19.05;;
29550;SDS011;16488;52.396;10.696;2023-01-19T19:29:07;44.92;;;20.70;;
29550;SDS011;16488;52.396;10.696;2023-01-19T19:31:32;50.67;;;19.88;;
29550;SDS011;16488;52.396;10.696;2023-01-19T19:33:58;48.08;;;19.92;;
29550;SDS011;16488;52.396;10.696;2023-01-19T19:36:24;46.65;;;18.27;;
29550;SDS011;16488;52.396;10.696;2023-01-19T19:38:51;44.55;;;19.45;;
29550;SDS011;16488;52.396;10.696;2023-01-19T19:41:19;57.17;;;20.83;;
29550;SDS011;16488;52.396;10.696;2023-01-19T19:43:46;49.97;;;19.80;;
29550;SDS011;16488;52.396;10.696;2023-01-19T19:46:12;53.10;;;21.13;;
29550;SDS011;16488;52.396;10.696;2023-01-19T19:48:39;41.63;;;19.67;;
29550;SDS011;16488;52.396;10.696;2023-01-19T19:51:06;58.05;;;21.88;;
29550;SDS011;16488;52.396;10.696;2023-01-19T19:53:34;51.58;;;21.27;;
29550;SDS011;16488;52.396;10.696;2023-01-19T19:56:02;47.67;;;18.50;;
29550;SDS011;16488;52.396;10.696;2023-01-19T19:58:29;54.72;;;22.60;;
29550;SDS011;16488;52.396;10.696;2023-01-19T20:00:55;53.28;;;23.10;;
29550;SDS011;16488;52.396;10.696;2023-01-19T20:03:24;50.28;;;20.50;;
29550;SDS011;16488;52.396;10.696;2023-01-19T20:05:51;50.15;;;21.27;;
29550;SDS011;16488;52.396;10.696;2023-01-19T20:08:17;51.28;;;22.95;;
29550;SDS011;16488;52.396;10.696;2023-01-19T20:10:42;61.65;;;26.20;;
29550;SDS011;16488;52.396;10.696;2023-01-19T20:13:08;74.80;;;24.23;;
29550;SDS011;16488;52.396;10.696;2023-01-19T20:15:34;62.45;;;25.00;;
29550;SDS011;16488;52.396;10.696;2023-01-19T20:18:01;59.25;;;25.08;;
29550;SDS011;16488;52.396;10.696;2023-01-19T20:22:53;62.45;;;26.90;;
29550;SDS011;16488;52.396;10.696;2023-01-19T20:25:18;77.20;;;34.00;;
29550;SDS011;16488;52.396;10.696;2023-01-19T20:27:44;78.80;;;30.85;;
29550;SDS011;16488;52.396;10.696;2023-01-19T20:30:09;76.35;;;30.30;;
29550;SDS011;16488;52.396;10.696;2023-01-19T20:32:37;66.05;;;29.83;;
29550;SDS011;16488;52.396;10.696;2023-01-19T20:35:04;71.78;;;28.20;;
29550;SDS011;16488;52.396;10.696;2023-01-19T20:39:55;67.45;;;26.02;;
29550;SDS011;16488;52.396;10.696;2023-01-19T20:42:21;60.55;;;25.83;;
29550;SDS011;16488;52.396;10.696;2023-01-19T20:44:47;67.65;;;27.95;;
29550;SDS011;16488;52.396;10.696;2023-01-19T20:47:13;74.13;;;29.27;;
29550;SDS011;16488;52.396;10.696;2023-01-19T20:49:39;88.78;;;31.67;;
29550;SDS011;16488;52.396;10.696;2023-01-19T20:52:05;79.75;;;31.42;;
29550;SDS011;16488;52.396;10.696;2023-01-19T20:54:31;67.13;;;31.42;;
29550;SDS011;16488;52.396;10.696;2023-01-19T20:56:57;65.22;;;27.75;;
29550;SDS011;16488;52.396;10.696;2023-01-19T21:01:49;62.38;;;27.60;;
29550;SDS011;16488;52.396;10.696;2023-01-19T21:04:15;69.63;;;26.98;;
29550;SDS011;16488;52.396;10.696;2023-01-19T21:06:41;65.70;;;26.45;;
29550;SDS011;16488;52.396;10.696;2023-01-19T21:09:07;70.95;;;27.40;;
29550;SDS011;16488;52.396;10.696;2023-01-19T21:11:34;58.58;;;26.50;;
29550;SDS011;16488;52.396;10.696;2023-01-19T21:14:00;79.05;;;30.90;;
29550;SDS011;16488;52.396;10.696;2023-01-19T21:16:27;85.50;;;29.60;;
29550;SDS011;16488;52.396;10.696;2023-01-19T21:18:54;77.35;;;30.48;;
29550;SDS011;16488;52.396;10.696;2023-01-19T21:21:20;76.47;;;30.63;;
29550;SDS011;16488;52.396;10.696;2023-01-19T21:23:47;63.00;;;27.77;;
29550;SDS011;16488;52.396;10.696;2023-01-19T21:26:13;67.93;;;30.52;;
29550;SDS011;16488;52.396;10.696;2023-01-19T21:28:38;66.05;;;30.58;;
29550;SDS011;16488;52.396;10.696;2023-01-19T21:31:08;68.18;;;29.30;;
29550;SDS011;16488;52.396;10.696;2023-01-19T21:33:39;82.70;;;34.13;;
29550;SDS011;16488;52.396;10.696;2023-01-19T21:36:06;71.13;;;29.08;;
29550;SDS011;16488;52.396;10.696;2023-01-19T21:38:33;69.85;;;29.85;;
29550;SDS011;16488;52.396;10.696;2023-01-19T21:41:03;76.57;;;31.48;;
29550;SDS011;16488;52.396;10.696;2023-01-19T21:43:31;82.80;;;31.20;;
29550;SDS011;16488;52.396;10.696;2023-01-19T21:46:06;68.90;;;30.83;;
29550;SDS011;16488;52.396;10.696;2023-01-19T21:48:43;77.57;;;32.72;;
29550;SDS011;16488;52.396;10.696;2023-01-19T21:51:09;78.40;;;32.10;;
29550;SDS011;16488;52.396;10.696;2023-01-19T21:56:03;77.32;;;29.30;;
29550;SDS011;16488;52.396;10.696;2023-01-19T21:58:30;77.97;;;31.98;;
29550;SDS011;16488;52.396;10.696;2023-01-19T22:00:59;77.63;;;32.42;;
29550;SDS011;16488;52.396;10.696;2023-01-19T22:03:27;80.97;;;33.63;;
29550;SDS011;16488;52.396;10.696;2023-01-19T22:05:53;85.47;;;33.72;;
29550;SDS011;16488;52.396;10.696;2023-01-19T22:08:20;87.45;;;34.40;;
29550;SDS011;16488;52.396;10.696;2023-01-19T22:10:46;88.80;;;33.42;;
29550;SDS011;16488;52.396;10.696;2023-01-19T22:13:12;74.53;;;30.95;;
29550;SDS011;16488;52.396;10.696;2023-01-19T22:15:38;78.72;;;31.73;;
29550;SDS011;16488;52.396;10.696;2023-01-19T22:18:03;88.43;;;34.88;;
29550;SDS011;16488;52.396;10.696;2023-01-19T22:20:29;77.03;;;31.17;;
29550;SDS011;16488;52.396;10.696;2023-01-19T22:22:55;82.88;;;32.38;;
29550;SDS011;16488;52.396;10.696;2023-01-19T22:25:20;79.53;;;30.00;;
29550;SDS011;16488;52.396;10.696;2023-01-19T22:27:51;68.82;;;29.95;;
29550;SDS011;16488;52.396;10.696;2023-01-19T22:30:17;84.50;;;31.15;;
29550;SDS011;16488;52.396;10.696;2023-01-19T22:32:43;83.22;;;30.30;;
29550;SDS011;16488;52.396;10.696;2023-01-19T22:35:09;70.38;;;29.42;;
29550;SDS011;16488;52.396;10.696;2023-01-19T22:37:34;76.72;;;31.70;;
29550;SDS011;16488;52.396;10.696;2023-01-19T22:40:01;84.53;;;31.02;;
29550;SDS011;16488;52.396;10.696;2023-01-19T22:42:27;74.22;;;30.75;;
29550;SDS011;16488;52.396;10.696;2023-01-19T22:44:53;66.35;;;28.90;;
29550;SDS011;16488;52.396;10.696;2023-01-19T22:47:19;72.10;;;29.48;;
29550;SDS011;16488;52.396;10.696;2023-01-19T22:49:44;77.55;;;29.27;;
29550;SDS011;16488;52.396;10.696;2023-01-19T22:52:10;65.95;;;28.83;;
29550;SDS011;16488;52.396;10.696;2023-01-19T22:54:35;68.03;;;29.10;;
29550;SDS011;16488;52.396;10.696;2023-01-19T22:57:01;73.72;;;28.23;;
29550;SDS011;16488;52.396;10.696;2023-01-19T22:59:26;66.57;;;30.73;;
29550;SDS011;16488;52.396;10.696;2023-01-19T23:01:52;69.60;;;30.98;;
29550;SDS011;16488;52.396;10.696;2023-01-19T23:04:18;76.18;;;30.75;;
29550;SDS011;16488;52.396;10.696;2023-01-19T23:06:44;84.85;;;30.92;;
29550;SDS011;16488;52.396;10.696;2023-01-19T23:09:15;80.32;;;30.13;;
29550;SDS011;16488;52.396;10.696;2023-01-19T23:11:42;80.05;;;33.15;;
29550;SDS011;16488;52.396;10.696;2023-01-19T23:14:13;86.18;;;30.75;;
29550;SDS011;16488;52.396;10.696;2023-01-19T23:16:39;73.93;;;29.83;;
29550;SDS011;16488;52.396;10.696;2023-01-19T23:19:05;76.07;;;31.55;;
29550;SDS011;16488;52.396;10.696;2023-01-19T23:21:31;81.97;;;28.83;;
29550;SDS011;16488;52.396;10.696;2023-01-19T23:23:58;82.47;;;30.23;;
29550;SDS011;16488;52.396;10.696;2023-01-19T23:26:26;81.65;;;31.42;;
29550;SDS011;16488;52.396;10.696;2023-01-19T23:28:53;81.00;;;31.05;;
29550;SDS011;16488;52.396;10.696;2023-01-19T23:31:21;72.32;;;28.25;;
29550;SDS011;16488;52.396;10.696;2023-01-19T23:33:50;85.35;;;30.52;;
29550;SDS011;16488;52.396;10.696;2023-01-19T23:36:17;72.40;;;31.23;;
29550;SDS011;16488;52.396;10.696;2023-01-19T23:38:50;76.32;;;31.27;;
29550;SDS011;16488;52.396;10.696;2023-01-19T23:41:18;89.00;;;32.17;;
29550;SDS011;16488;52.396;10.696;2023-01-19T23:43:44;78.65;;;31.00;;
29550;SDS011;16488;52.396;10.696;2023-01-19T23:46:11;77.88;;;29.75;;
29550;SDS011;16488;52.396;10.696;2023-01-19T23:48:38;76.05;;;29.17;;
29550;SDS011;16488;52.396;10.696;2023-01-19T23:51:07;67.82;;;28.60;;
29550;SDS011;16488;52.396;10.696;2023-01-19T23:53:41;79.72;;;31.27;;
29550;SDS011;16488;52.396;10.696;2023-01-19T23:56:08;67.68;;;28.75;;
29550;SDS011;16488;52.396;10.696;2023-01-19T23:58:35;69.95;;;27.88;;
